Time;durP1;ratioP1;P1;durP2;ratioP2;P2;SDS_P1;SDS_P2;PMS_P1;PMS_P2;Temp;Humidity;BMP_temperature;BMP_pressure;BME280_temperature;BME280_humidity;BME280_pressure;Samples;Min_cycle;Max_cycle;Signal;HPM_P1;HPM_P2
2021/12/22 00:01:48;;;;;;;27.60;18.13;;;-3.70;99.90;;;;;;5065208;28;20443;-67
2021/12/22 00:04:15;;;;;;;23.10;17.10;;;-3.70;99.90;;;;;;5065206;28;20484;-67
2021/12/22 00:06:42;;;;;;;24.00;17.70;;;-3.80;99.90;;;;;;5064043;28;20455;-67
2021/12/22 00:09:09;;;;;;;21.43;16.97;;;-3.80;99.90;;;;;;5065460;28;20528;-67
2021/12/22 00:11:36;;;;;;;20.47;16.63;;;-3.80;99.90;;;;;;5064705;28;20649;-67
2021/12/22 00:14:03;;;;;;;25.07;19.00;;;-3.80;99.90;;;;;;5065481;28;20841;-67
2021/12/22 00:16:31;;;;;;;22.83;16.90;;;-3.80;99.90;;;;;;5075714;28;20463;-66
2021/12/22 00:18:58;;;;;;;24.93;18.00;;;-3.80;99.90;;;;;;5065725;28;20442;-67
2021/12/22 00:21:25;;;;;;;29.27;18.50;;;-3.80;99.90;;;;;;5065331;28;20531;-66
2021/12/22 00:23:52;;;;;;;27.03;18.07;;;-3.90;99.90;;;;;;5064870;28;20472;-68
2021/12/22 00:26:19;;;;;;;21.83;17.30;;;-3.90;99.90;;;;;;5064125;28;20534;-65
2021/12/22 00:28:46;;;;;;;24.87;18.10;;;-3.90;99.90;;;;;;5065275;28;20522;-66
2021/12/22 00:31:14;;;;;;;28.17;19.80;;;-4.00;99.90;;;;;;5065185;28;20456;-66
2021/12/22 00:33:48;;;;;;;24.37;19.23;;;-4.00;99.90;;;;;;5065107;28;21443;-67
2021/12/22 00:36:17;;;;;;;26.50;19.50;;;-4.10;99.90;;;;;;5064455;28;20542;-65
2021/12/22 00:38:44;;;;;;;26.33;18.07;;;-4.00;99.90;;;;;;5064584;28;20510;-66
2021/12/22 00:41:11;;;;;;;27.80;19.50;;;-4.00;99.90;;;;;;5065074;28;20798;-66
2021/12/22 00:43:38;;;;;;;29.67;18.47;;;-4.00;99.90;;;;;;5064912;28;20979;-66
2021/12/22 00:46:05;;;;;;;25.73;17.90;;;-4.00;99.90;;;;;;5076772;28;20451;-66
2021/12/22 00:48:32;;;;;;;22.70;18.50;;;-4.00;99.90;;;;;;5071945;28;20768;-66
2021/12/22 00:51:01;;;;;;;30.17;19.10;;;-4.10;99.90;;;;;;5077955;28;20451;-66
2021/12/22 00:53:28;;;;;;;29.90;18.23;;;-4.10;99.90;;;;;;5084295;28;20485;-65
2021/12/22 00:55:55;;;;;;;24.83;18.40;;;-4.10;99.90;;;;;;5085231;28;20458;-66
2021/12/22 00:58:22;;;;;;;25.50;18.47;;;-4.10;99.90;;;;;;5065253;28;20455;-66
2021/12/22 01:00:49;;;;;;;30.23;19.97;;;-4.10;99.90;;;;;;5071132;28;20835;-67
2021/12/22 01:03:17;;;;;;;23.47;18.20;;;-4.20;99.90;;;;;;5071564;28;20470;-67
2021/12/22 01:05:44;;;;;;;25.37;17.83;;;-4.20;99.90;;;;;;5068463;28;20458;-67
2021/12/22 01:08:12;;;;;;;22.40;17.90;;;-4.30;99.90;;;;;;5066373;28;20442;-66
2021/12/22 01:10:39;;;;;;;23.23;17.73;;;-4.30;99.90;;;;;;5068001;28;20536;-66
2021/12/22 01:13:08;;;;;;;25.70;18.53;;;-4.30;99.90;;;;;;5067531;28;20526;-66
2021/12/22 01:15:36;;;;;;;22.90;17.07;;;-4.40;99.90;;;;;;5075832;28;20446;-67
2021/12/22 01:18:10;;;;;;;22.87;18.03;;;-4.40;99.90;;;;;;5075122;28;20453;-66
2021/12/22 01:20:50;;;;;;;28.20;18.40;;;-4.40;99.90;;;;;;5071785;28;20940;-66
2021/12/22 01:23:20;;;;;;;28.67;18.90;;;-4.30;99.90;;;;;;5071575;28;20475;-67
2021/12/22 01:25:48;;;;;;;27.70;18.90;;;-4.30;99.90;;;;;;5071419;28;20450;-66
2021/12/22 01:28:16;;;;;;;27.80;19.10;;;-4.30;99.90;;;;;;5070258;28;20435;-66
2021/12/22 01:30:46;;;;;;;27.17;18.30;;;-4.30;99.90;;;;;;5070948;28;20541;-66
2021/12/22 01:33:15;;;;;;;25.17;18.93;;;-4.30;99.90;;;;;;5071410;28;20487;-66
2021/12/22 01:35:43;;;;;;;29.07;18.80;;;-4.30;99.90;;;;;;5071372;28;20445;-66
2021/12/22 01:38:10;;;;;;;30.13;17.97;;;-4.40;99.90;;;;;;5070605;28;20454;-66
2021/12/22 01:40:43;;;;;;;25.90;18.80;;;-4.40;99.90;;;;;;5071190;28;20447;-66
2021/12/22 01:43:10;;;;;;;20.77;17.00;;;-4.40;99.90;;;;;;5071167;28;20464;-66
2021/12/22 01:45:54;;;;;;;32.33;17.80;;;-4.40;99.90;;;;;;5079929;28;20528;-66
2021/12/22 01:51:25;;;;;;;28.40;18.33;;;-4.50;99.90;;;;;;5070618;28;20424;-66
2021/12/22 01:53:57;;;;;;;28.47;19.53;;;-4.40;99.90;;;;;;5070424;28;20490;-66
2021/12/22 01:56:27;;;;;;;24.47;17.90;;;-4.40;99.90;;;;;;5069771;28;21486;-66
2021/12/22 01:58:56;;;;;;;25.80;18.00;;;-4.50;99.90;;;;;;5082959;28;21184;-66
2021/12/22 02:01:24;;;;;;;25.50;19.13;;;-4.50;99.90;;;;;;5070218;28;20433;-66
2021/12/22 02:03:52;;;;;;;25.13;17.50;;;-4.50;99.90;;;;;;5070351;28;21013;-67
2021/12/22 02:06:20;;;;;;;26.57;17.90;;;-4.60;99.90;;;;;;5069730;28;20446;-65
2021/12/22 02:08:48;;;;;;;25.50;17.00;;;-4.70;99.90;;;;;;5070218;28;20440;-66
2021/12/22 02:11:17;;;;;;;26.20;17.60;;;-4.70;99.90;;;;;;5070491;28;21238;-66
2021/12/22 02:13:50;;;;;;;28.13;18.17;;;-4.60;99.90;;;;;;5070243;28;20573;-66
2021/12/22 02:16:25;;;;;;;25.07;17.20;;;-4.70;99.90;;;;;;5070480;28;20440;-65
2021/12/22 02:18:53;;;;;;;23.43;16.40;;;-4.70;99.90;;;;;;5078340;28;20455;-66
2021/12/22 02:21:23;;;;;;;24.33;17.20;;;-4.60;99.90;;;;;;5070255;28;20996;-66
2021/12/22 02:23:50;;;;;;;26.13;21.60;;;-4.50;99.90;;;;;;5070158;28;20494;-66
2021/12/22 02:26:21;;;;;;;27.57;17.87;;;-4.40;99.90;;;;;;5069681;28;20538;-66
2021/12/22 02:28:56;;;;;;;38.53;19.20;;;-4.40;99.90;;;;;;5069819;28;20448;-66
2021/12/22 02:31:23;;;;;;;29.80;17.93;;;-4.40;99.90;;;;;;5069786;28;20508;-66
2021/12/22 02:33:51;;;;;;;25.77;18.27;;;-4.40;99.90;;;;;;5069863;28;20486;-67
2021/12/22 02:36:23;;;;;;;25.67;18.80;;;-4.40;99.90;;;;;;5069464;28;20475;-66
2021/12/22 02:38:53;;;;;;;28.40;17.93;;;-4.30;99.90;;;;;;5069531;28;20447;-66
2021/12/22 02:41:23;;;;;;;24.27;18.90;;;-4.40;99.90;;;;;;5069722;28;20450;-66
2021/12/22 02:43:53;;;;;;;30.17;19.13;;;-4.50;99.90;;;;;;5069611;28;20503;-66
2021/12/22 02:46:22;;;;;;;30.50;17.40;;;-4.60;99.90;;;;;;5078467;28;20443;-66
2021/12/22 02:48:49;;;;;;;27.50;20.20;;;-4.60;99.90;;;;;;5070230;28;20435;-66
2021/12/22 02:51:17;;;;;;;27.70;18.83;;;-4.60;99.90;;;;;;5069972;28;20475;-66
2021/12/22 02:53:50;;;;;;;24.30;15.97;;;-4.70;99.90;;;;;;5069792;28;20976;-66
2021/12/22 02:56:30;;;;;;;24.30;19.40;;;-4.70;99.90;;;;;;5081925;28;20450;-66
2021/12/22 02:59:03;;;;;;;25.80;18.13;;;-4.70;99.90;;;;;;5069820;28;20501;-66
2021/12/22 03:02:05;;;;;;;24.10;17.43;;;-4.80;99.90;;;;;;5069704;28;20458;-67
2021/12/22 03:04:32;;;;;;;24.30;16.67;;;-4.80;99.90;;;;;;5082456;28;20580;-67
2021/12/22 03:07:02;;;;;;;24.80;17.83;;;-4.80;99.90;;;;;;5068488;28;20871;-66
2021/12/22 03:09:32;;;;;;;25.00;18.50;;;-4.80;99.90;;;;;;5069491;28;20447;-66
2021/12/22 03:12:01;;;;;;;26.20;17.87;;;-4.80;99.90;;;;;;5069254;28;20439;-66
2021/12/22 03:14:29;;;;;;;26.20;20.20;;;-4.80;99.90;;;;;;5068786;28;20479;-67
2021/12/22 03:16:57;;;;;;;26.40;17.43;;;-4.80;99.90;;;;;;5077919;28;20802;-67
2021/12/22 03:19:25;;;;;;;25.30;18.57;;;-4.80;99.90;;;;;;5072278;28;20458;-66
2021/12/22 03:21:59;;;;;;;27.90;17.93;;;-4.80;99.90;;;;;;5069049;28;20451;-67
2021/12/22 03:24:27;;;;;;;23.53;16.90;;;-4.80;99.90;;;;;;5069235;28;20451;-66
2021/12/22 03:26:59;;;;;;;26.47;16.50;;;-4.80;99.90;;;;;;5067862;28;21239;-66
2021/12/22 03:29:26;;;;;;;25.10;16.73;;;-4.70;99.90;;;;;;5069048;28;20562;-67
2021/12/22 03:31:53;;;;;;;23.43;16.67;;;-4.70;99.90;;;;;;5068644;28;20855;-67
2021/12/22 03:34:19;;;;;;;25.10;16.70;;;-4.70;99.90;;;;;;5068998;28;21087;-66
2021/12/22 03:36:46;;;;;;;28.17;18.87;;;-4.80;99.90;;;;;;5067268;28;20958;-66
2021/12/22 03:39:15;;;;;;;20.10;15.77;;;-4.80;99.90;;;;;;5084705;28;20456;-66
2021/12/22 03:41:42;;;;;;;23.97;16.60;;;-4.80;99.90;;;;;;5087494;28;20451;-66
2021/12/22 03:44:11;;;;;;;24.13;18.27;;;-4.80;99.90;;;;;;5088211;28;20471;-66
2021/12/22 03:46:38;;;;;;;27.40;17.20;;;-4.90;99.90;;;;;;5077194;28;20466;-66
2021/12/22 03:49:07;;;;;;;28.13;18.63;;;-5.00;99.90;;;;;;5074073;28;20622;-66
2021/12/22 03:51:36;;;;;;;22.20;16.00;;;-5.10;99.90;;;;;;5068782;28;20484;-66
2021/12/22 03:54:03;;;;;;;27.63;19.43;;;-5.00;99.90;;;;;;5068490;28;20483;-66
2021/12/22 03:56:30;;;;;;;24.90;16.43;;;-5.00;99.90;;;;;;5067735;28;20447;-66
2021/12/22 03:58:57;;;;;;;22.07;16.73;;;-5.00;99.90;;;;;;5068228;28;20446;-66
2021/12/22 04:01:25;;;;;;;31.60;18.57;;;-5.00;99.90;;;;;;5068601;28;20440;-66
2021/12/22 04:03:56;;;;;;;23.87;17.80;;;-5.00;99.90;;;;;;5068483;28;20462;-66
2021/12/22 04:06:23;;;;;;;29.10;17.17;;;-4.90;99.90;;;;;;5067957;28;20441;-66
2021/12/22 04:08:50;;;;;;;28.73;18.70;;;-4.90;99.90;;;;;;5068128;28;20443;-66
2021/12/22 04:11:17;;;;;;;38.90;19.37;;;-5.00;99.90;;;;;;5068611;28;20827;-66
2021/12/22 04:13:43;;;;;;;26.20;18.20;;;-4.90;99.90;;;;;;5068614;28;20483;-66
2021/12/22 04:16:10;;;;;;;24.60;17.07;;;-4.90;99.90;;;;;;5078033;28;20450;-66
2021/12/22 04:18:38;;;;;;;22.43;15.70;;;-4.90;99.90;;;;;;5071433;28;20812;-66
2021/12/22 04:21:05;;;;;;;31.60;19.00;;;-5.00;99.90;;;;;;5068361;28;20454;-65
2021/12/22 04:23:32;;;;;;;26.33;18.23;;;-4.90;99.90;;;;;;5068471;28;20490;-66
2021/12/22 04:25:59;;;;;;;25.40;18.47;;;-5.00;99.90;;;;;;5068434;28;20439;-66
2021/12/22 04:28:26;;;;;;;26.57;18.00;;;-5.00;99.90;;;;;;5067562;28;20543;-66
2021/12/22 04:30:53;;;;;;;26.53;18.83;;;-5.10;99.90;;;;;;5068156;28;20546;-67
2021/12/22 04:33:20;;;;;;;30.30;19.47;;;-5.20;99.90;;;;;;5068260;28;20502;-66
2021/12/22 04:35:50;;;;;;;26.87;17.10;;;-5.20;99.90;;;;;;5068222;28;20455;-66
2021/12/22 04:38:17;;;;;;;28.07;18.37;;;-5.10;99.90;;;;;;5066516;28;20806;-66
2021/12/22 04:40:44;;;;;;;22.90;16.83;;;-5.10;99.90;;;;;;5067893;28;20451;-67
2021/12/22 04:43:11;;;;;;;23.20;15.83;;;-5.10;99.90;;;;;;5067777;28;20471;-66
2021/12/22 04:45:38;;;;;;;25.30;16.93;;;-5.10;99.90;;;;;;5074252;28;21178;-66
2021/12/22 04:48:05;;;;;;;27.10;17.60;;;-5.10;99.90;;;;;;5075853;28;20451;-67
2021/12/22 04:50:33;;;;;;;25.00;17.40;;;-5.10;99.90;;;;;;5070718;28;20452;-66
2021/12/22 04:53:07;;;;;;;24.93;16.83;;;-5.10;99.90;;;;;;5069639;28;20550;-66
2021/12/22 04:55:34;;;;;;;22.10;16.23;;;-5.10;99.90;;;;;;5072176;28;20480;-66
2021/12/22 04:58:01;;;;;;;22.87;15.83;;;-5.10;99.90;;;;;;5070557;28;20443;-66
2021/12/22 05:00:30;;;;;;;23.00;16.60;;;-5.10;99.90;;;;;;5072276;28;20450;-66
2021/12/22 05:02:59;;;;;;;25.87;17.50;;;-5.10;99.90;;;;;;5071910;28;20474;-67
2021/12/22 05:05:27;;;;;;;24.13;16.70;;;-5.00;99.90;;;;;;5072444;28;20443;-66
2021/12/22 05:07:54;;;;;;;27.13;17.70;;;-5.00;99.90;;;;;;5075393;28;20448;-66
2021/12/22 05:10:24;;;;;;;21.27;16.10;;;-5.00;99.90;;;;;;5091682;28;20446;-66
2021/12/22 05:12:51;;;;;;;21.97;17.13;;;-5.00;99.90;;;;;;5091160;28;20550;-66
2021/12/22 05:15:20;;;;;;;22.07;16.10;;;-5.00;99.90;;;;;;5090959;28;20474;-66
2021/12/22 05:20:43;;;;;;;21.97;16.40;;;-4.90;99.90;;;;;;5023891;28;20930;-65
2021/12/22 05:23:10;;;;;;;22.70;17.10;;;-5.00;99.90;;;;;;5075480;28;20470;-66
2021/12/22 05:25:38;;;;;;;24.13;14.03;;;-5.00;99.90;;;;;;5090746;28;20438;-67
2021/12/22 05:28:05;;;;;;;24.77;16.73;;;-5.00;99.90;;;;;;5089773;28;20833;-69
2021/12/22 05:30:32;;;;;;;21.07;15.10;;;-5.10;99.90;;;;;;5090772;28;21512;-66
2021/12/22 05:32:59;;;;;;;25.87;18.73;;;-5.20;99.90;;;;;;5090556;28;20465;-65
2021/12/22 05:35:26;;;;;;;22.03;17.17;;;-5.20;99.90;;;;;;5090711;28;20486;-66
2021/12/22 05:37:53;;;;;;;25.53;17.90;;;-5.30;99.90;;;;;;5089876;28;20442;-66
2021/12/22 05:40:20;;;;;;;25.27;18.93;;;-5.30;99.90;;;;;;5091192;28;20468;-66
2021/12/22 05:42:48;;;;;;;34.07;18.80;;;-5.30;99.90;;;;;;5091028;28;20463;-66
2021/12/22 05:45:15;;;;;;;27.40;15.33;;;-5.40;99.90;;;;;;5090941;28;20436;-66
2021/12/22 05:47:42;;;;;;;23.67;18.07;;;-5.40;99.90;;;;;;5089991;28;20446;-66
2021/12/22 05:50:09;;;;;;;29.23;16.53;;;-5.40;99.90;;;;;;5090732;28;20438;-66
2021/12/22 05:52:36;;;;;;;21.40;17.53;;;-5.30;99.90;;;;;;5090893;28;20556;-66
2021/12/22 05:55:04;;;;;;;23.77;17.27;;;-5.30;99.90;;;;;;5090569;28;20485;-66
2021/12/22 05:57:30;;;;;;;28.73;17.27;;;-5.40;99.90;;;;;;5087210;28;20445;-66
2021/12/22 05:59:58;;;;;;;25.30;16.80;;;-5.40;99.90;;;;;;5088709;28;20456;-66
2021/12/22 06:02:25;;;;;;;25.30;17.63;;;-5.40;99.90;;;;;;5090710;28;20458;-66
2021/12/22 06:04:52;;;;;;;22.63;17.60;;;-5.40;99.90;;;;;;5090173;28;20525;-67
2021/12/22 06:07:19;;;;;;;23.43;15.30;;;-5.40;99.90;;;;;;5089372;28;20464;-66
2021/12/22 06:09:46;;;;;;;23.57;16.07;;;-5.40;99.90;;;;;;5090790;28;20443;-65
2021/12/22 06:12:13;;;;;;;25.93;17.03;;;-5.40;99.90;;;;;;5089948;28;20526;-66
2021/12/22 06:14:39;;;;;;;25.93;16.97;;;-5.40;99.90;;;;;;5090574;28;20569;-66
2021/12/22 06:17:08;;;;;;;21.77;16.50;;;-5.50;99.90;;;;;;5089287;28;20478;-66
2021/12/22 06:19:34;;;;;;;20.37;13.40;;;-5.40;99.90;;;;;;5090574;28;20888;-66
2021/12/22 06:22:02;;;;;;;24.00;15.53;;;-5.40;99.90;;;;;;5088035;28;20442;-66
2021/12/22 06:24:29;;;;;;;23.23;15.47;;;-5.30;99.90;;;;;;5090374;28;20517;-67
2021/12/22 06:26:57;;;;;;;25.87;16.27;;;-5.30;99.90;;;;;;5088706;28;20537;-65
2021/12/22 06:29:24;;;;;;;20.90;15.10;;;-5.20;99.90;;;;;;5089830;28;20449;-66
2021/12/22 06:31:51;;;;;;;22.43;15.90;;;-5.20;99.90;;;;;;5089774;28;20454;-65
2021/12/22 06:34:19;;;;;;;29.67;17.37;;;-5.30;99.90;;;;;;5090021;28;20484;-65
2021/12/22 06:36:46;;;;;;;27.97;17.03;;;-5.30;99.90;;;;;;5088840;28;20824;-66
2021/12/22 06:39:14;;;;;;;22.87;16.40;;;-5.40;99.90;;;;;;5089234;28;20444;-65
2021/12/22 06:41:41;;;;;;;24.00;14.70;;;-5.40;99.90;;;;;;5089538;28;20450;-66
2021/12/22 06:44:08;;;;;;;22.63;15.77;;;-5.40;99.90;;;;;;5089231;28;20556;-66
2021/12/22 06:46:35;;;;;;;26.93;18.83;;;-5.40;99.90;;;;;;5088424;28;20556;-66
2021/12/22 06:49:02;;;;;;;30.10;18.63;;;-5.40;99.90;;;;;;5089004;28;20456;-66
2021/12/22 06:51:30;;;;;;;30.33;20.10;;;-5.40;99.90;;;;;;5089125;28;20455;-66
2021/12/22 06:53:57;;;;;;;23.90;15.43;;;-5.40;99.90;;;;;;5088955;28;20510;-66
2021/12/22 06:56:24;;;;;;;23.73;17.07;;;-5.40;99.90;;;;;;5088229;28;20509;-66
2021/12/22 06:58:50;;;;;;;31.67;18.60;;;-5.30;99.90;;;;;;5088661;28;20554;-66
2021/12/22 07:01:18;;;;;;;23.03;15.87;;;-5.20;99.90;;;;;;5087996;28;20451;-66
2021/12/22 07:03:45;;;;;;;24.57;16.93;;;-5.20;99.90;;;;;;5088629;28;20470;-66
2021/12/22 07:06:12;;;;;;;23.43;16.43;;;-5.20;99.90;;;;;;5089162;28;21024;-66
2021/12/22 07:08:40;;;;;;;23.20;18.00;;;-5.30;99.90;;;;;;5087889;28;20450;-66
2021/12/22 07:11:07;;;;;;;27.60;17.27;;;-5.30;99.90;;;;;;5088827;28;20890;-66
2021/12/22 07:13:34;;;;;;;23.43;15.83;;;-5.30;99.90;;;;;;5088744;28;21009;-66
2021/12/22 07:16:01;;;;;;;24.17;16.30;;;-5.30;99.90;;;;;;5087922;28;20529;-66
2021/12/22 07:18:28;;;;;;;27.00;17.10;;;-5.40;99.90;;;;;;5087923;28;20443;-66
2021/12/22 07:20:55;;;;;;;27.03;17.77;;;-5.40;99.90;;;;;;5088792;28;20634;-66
2021/12/22 07:23:22;;;;;;;28.90;20.13;;;-5.40;99.90;;;;;;5088649;28;20477;-65
2021/12/22 07:25:50;;;;;;;27.27;17.50;;;-5.40;99.90;;;;;;5088828;28;20435;-66
2021/12/22 07:28:17;;;;;;;28.93;17.17;;;-5.50;99.90;;;;;;5087797;28;20446;-66
2021/12/22 07:30:44;;;;;;;24.67;16.20;;;-5.40;99.90;;;;;;5088987;28;20534;-66
2021/12/22 07:33:11;;;;;;;21.97;16.60;;;-5.40;99.90;;;;;;5089326;28;20458;-66
2021/12/22 07:35:42;;;;;;;30.73;19.07;;;-5.40;99.90;;;;;;5089154;28;20478;-66
2021/12/22 07:38:21;;;;;;;25.43;17.80;;;-5.40;99.90;;;;;;5087198;28;20447;-66
2021/12/22 07:40:49;;;;;;;27.10;18.60;;;-5.40;99.90;;;;;;5088257;28;20947;-67
2021/12/22 07:43:16;;;;;;;23.53;17.27;;;-5.40;99.90;;;;;;5088122;28;20470;-66
2021/12/22 07:45:43;;;;;;;24.47;16.33;;;-5.30;99.90;;;;;;5087942;28;20441;-64
2021/12/22 07:48:10;;;;;;;24.00;17.20;;;-5.30;99.90;;;;;;5086618;28;20440;-66
2021/12/22 07:50:37;;;;;;;22.63;17.03;;;-5.20;99.90;;;;;;5088097;28;20450;-66
2021/12/22 07:53:04;;;;;;;22.47;17.33;;;-5.20;99.90;;;;;;5088120;28;20550;-66
2021/12/22 07:55:31;;;;;;;23.27;15.80;;;-5.10;99.90;;;;;;5088064;28;20481;-66
2021/12/22 07:58:00;;;;;;;28.47;16.33;;;-5.00;99.90;;;;;;5086534;28;20459;-66
2021/12/22 08:00:27;;;;;;;27.57;18.17;;;-4.90;99.90;;;;;;5088019;28;20445;-65
2021/12/22 08:02:54;;;;;;;23.90;17.63;;;-4.90;99.90;;;;;;5087414;28;21021;-64
2021/12/22 08:05:21;;;;;;;27.33;18.53;;;-4.80;99.90;;;;;;5087971;28;20827;-66
2021/12/22 08:07:48;;;;;;;27.00;17.73;;;-4.70;99.90;;;;;;5086552;28;20964;-65
2021/12/22 08:10:16;;;;;;;28.57;19.20;;;-4.60;99.90;;;;;;5087853;28;20457;-66
2021/12/22 08:12:42;;;;;;;27.80;17.00;;;-4.60;99.90;;;;;;5087693;28;20463;-65
2021/12/22 08:15:11;;;;;;;25.47;16.50;;;-4.70;99.90;;;;;;5087595;28;20481;-66
2021/12/22 08:17:37;;;;;;;24.23;17.73;;;-4.70;99.90;;;;;;5086406;28;20537;-66
2021/12/22 08:20:05;;;;;;;25.57;17.47;;;-4.50;99.90;;;;;;5087387;28;21138;-65
2021/12/22 08:22:32;;;;;;;25.30;17.67;;;-4.40;99.90;;;;;;5087304;28;20466;-66
2021/12/22 08:24:59;;;;;;;27.60;18.03;;;-4.30;99.90;;;;;;5087395;28;20537;-66
2021/12/22 08:27:26;;;;;;;26.43;18.10;;;-4.20;99.90;;;;;;5086257;28;20533;-66
2021/12/22 08:29:53;;;;;;;30.37;17.43;;;-4.20;99.90;;;;;;5087731;28;20446;-66
2021/12/22 08:32:21;;;;;;;28.10;17.90;;;-4.10;99.90;;;;;;5087317;28;20482;-67
2021/12/22 08:34:54;;;;;;;28.67;17.77;;;-3.90;99.90;;;;;;5087469;28;20479;-67
2021/12/22 08:40:14;;;;;;;27.30;18.73;;;-3.60;99.90;;;;;;5038894;28;20513;-66
2021/12/22 08:42:41;;;;;;;32.20;20.37;;;-3.50;99.90;;;;;;5087196;28;20469;-65
2021/12/22 08:45:09;;;;;;;29.97;18.50;;;-3.40;99.90;;;;;;5087289;28;20462;-66
2021/12/22 08:47:38;;;;;;;28.27;20.43;;;-3.30;99.90;;;;;;5086134;28;20446;-65
2021/12/22 08:50:06;;;;;;;29.03;19.57;;;-3.20;99.90;;;;;;5087433;28;20820;-66
2021/12/22 08:52:33;;;;;;;26.20;19.20;;;-3.20;99.90;;;;;;5087077;28;20469;-66
2021/12/22 08:55:00;;;;;;;29.43;19.90;;;-3.10;99.90;;;;;;5087238;28;21284;-65
2021/12/22 08:57:27;;;;;;;32.90;19.30;;;-3.00;99.90;;;;;;5086406;28;20451;-66
2021/12/22 08:59:54;;;;;;;29.67;21.20;;;-3.00;99.90;;;;;;5087644;28;20488;-66
2021/12/22 09:02:21;;;;;;;27.87;19.07;;;-3.00;99.90;;;;;;5087249;28;20528;-65
2021/12/22 09:04:49;;;;;;;30.27;19.43;;;-2.80;99.90;;;;;;5087208;28;20977;-66
2021/12/22 09:07:16;;;;;;;24.47;19.10;;;-2.80;99.90;;;;;;5085850;28;20446;-66
2021/12/22 09:09:44;;;;;;;28.20;20.23;;;-2.80;99.90;;;;;;5087176;28;20468;-66
2021/12/22 09:12:11;;;;;;;27.57;19.37;;;-2.80;99.90;;;;;;5087192;28;20863;-66
2021/12/22 09:14:38;;;;;;;31.70;21.70;;;-2.90;99.90;;;;;;5087082;28;20466;-65
2021/12/22 09:17:05;;;;;;;30.57;21.60;;;-2.80;99.90;;;;;;5086372;28;20445;-66
2021/12/22 09:19:32;;;;;;;32.27;22.83;;;-2.70;99.90;;;;;;5087950;28;20887;-66
2021/12/22 09:22:00;;;;;;;30.40;21.60;;;-2.60;99.90;;;;;;5088327;28;20534;-66
2021/12/22 09:24:27;;;;;;;32.57;21.37;;;-2.60;99.90;;;;;;5087124;28;21104;-66
2021/12/22 09:26:54;;;;;;;28.50;22.20;;;-2.60;99.90;;;;;;5086083;28;21156;-65
2021/12/22 09:29:24;;;;;;;30.70;22.60;;;-2.50;99.90;;;;;;5086628;28;20443;-69
2021/12/22 09:31:51;;;;;;;29.60;21.00;;;-2.50;99.90;;;;;;5086895;28;20470;-67
2021/12/22 09:34:17;;;;;;;31.87;23.17;;;-2.40;99.90;;;;;;5087380;28;20473;-66
2021/12/22 09:36:45;;;;;;;33.23;22.73;;;-2.40;99.90;;;;;;5086279;28;20442;-66
2021/12/22 09:39:13;;;;;;;34.93;24.37;;;-2.40;99.90;;;;;;5088174;28;20449;-65
2021/12/22 09:41:40;;;;;;;31.53;23.40;;;-2.30;99.90;;;;;;5090658;28;20461;-66
2021/12/22 09:44:07;;;;;;;39.00;23.73;;;-2.20;99.90;;;;;;5081178;28;20473;-67
2021/12/22 09:46:35;;;;;;;38.37;26.00;;;-2.10;99.90;;;;;;5088230;28;20466;-67
2021/12/22 09:49:08;;;;;;;34.93;24.30;;;-2.00;99.90;;;;;;5089266;28;20450;-65
2021/12/22 09:54:21;;;;;;;37.70;23.97;;;-1.80;99.90;;;;;;5085972;28;21100;-65
2021/12/22 09:56:48;;;;;;;44.33;24.83;;;-1.60;99.90;;;;;;5077986;28;20478;-66
2021/12/22 09:59:15;;;;;;;47.63;25.87;;;-1.60;99.90;;;;;;5088672;28;20450;-66
2021/12/22 10:01:42;;;;;;;42.87;26.40;;;-1.50;99.90;;;;;;5088626;28;20479;-64
2021/12/22 10:04:10;;;;;;;37.13;24.57;;;-1.40;99.90;;;;;;5088850;28;20458;-64
2021/12/22 10:06:37;;;;;;;53.17;25.70;;;-1.30;99.90;;;;;;5083527;28;20540;-67
2021/12/22 10:09:06;;;;;;;41.53;26.40;;;-1.10;99.90;;;;;;5084796;28;20470;-65
2021/12/22 10:11:41;;;;;;;30.40;20.47;;;-0.90;99.90;;;;;;5082695;28;20462;-66
2021/12/22 10:14:18;;;;;;;33.53;22.47;;;-0.80;99.90;;;;;;5081134;28;21017;-66
2021/12/22 10:16:47;;;;;;;33.87;25.33;;;-0.50;99.90;;;;;;5085728;28;20910;-66
2021/12/22 10:19:14;;;;;;;31.63;23.43;;;-0.30;99.90;;;;;;5085495;28;20921;-67
2021/12/22 10:21:52;;;;;;;32.07;22.30;;;0.00;99.90;;;;;;5082823;28;20454;-65
2021/12/22 10:24:22;;;;;;;30.63;20.60;;;0.60;99.90;;;;;;5086391;28;20462;-66
2021/12/22 10:27:02;;;;;;;29.60;20.13;;;1.30;99.90;;;;;;5086541;28;20456;-66
2021/12/22 10:29:32;;;;;;;31.93;22.70;;;2.00;99.90;;;;;;5085208;28;20462;-65
2021/12/22 10:32:08;;;;;;;29.37;22.60;;;2.80;99.90;;;;;;5086106;28;20451;-66
2021/12/22 10:34:35;;;;;;;28.83;20.87;;;3.30;99.90;;;;;;5088151;28;20531;-67
2021/12/22 10:37:01;;;;;;;26.43;18.70;;;3.70;99.90;;;;;;5086745;28;20489;-66
2021/12/22 10:39:31;;;;;;;24.80;19.20;;;4.00;99.90;;;;;;5088475;28;20457;-67
2021/12/22 10:42:05;;;;;;;28.07;20.60;;;4.30;99.90;;;;;;5072163;28;20454;-64
2021/12/22 10:44:37;;;;;;;21.63;17.33;;;4.50;99.90;;;;;;5084030;28;20447;-64
2021/12/22 10:47:18;;;;;;;26.60;19.00;;;4.10;99.90;;;;;;5078215;28;20932;-65
2021/12/22 10:49:59;;;;;;;20.47;16.00;;;3.70;99.90;;;;;;5079611;28;20450;-64
2021/12/22 10:52:26;;;;;;;20.47;15.67;;;3.10;99.90;;;;;;5080996;28;20471;-65
2021/12/22 10:55:08;;;;;;;20.57;15.60;;;2.70;99.90;;;;;;5079293;28;20459;-66
2021/12/22 10:57:42;;;;;;;20.90;15.03;;;2.10;99.90;;;;;;5080415;28;20554;-65
2021/12/22 11:00:17;;;;;;;22.17;16.53;;;1.70;99.90;;;;;;5077747;28;20566;-64
2021/12/22 11:02:50;;;;;;;24.97;17.63;;;1.50;99.90;;;;;;5079324;28;20469;-66
2021/12/22 11:05:19;;;;;;;23.50;16.60;;;1.30;99.90;;;;;;5076491;28;20496;-66
2021/12/22 11:07:45;;;;;;;21.20;16.77;;;1.20;99.90;;;;;;5085178;28;21317;-66
2021/12/22 11:10:24;;;;;;;23.27;16.73;;;1.20;99.90;;;;;;5086488;28;20480;-67
2021/12/22 11:13:01;;;;;;;23.53;16.87;;;1.20;99.90;;;;;;5073536;28;21020;-66
2021/12/22 11:15:28;;;;;;;24.73;17.70;;;1.20;99.90;;;;;;5086957;28;20635;-65
2021/12/22 11:17:55;;;;;;;23.70;17.50;;;1.20;99.90;;;;;;5080821;28;20457;-66
2021/12/22 11:20:24;;;;;;;19.67;16.10;;;1.20;99.90;;;;;;5080059;28;20571;-66
2021/12/22 11:22:57;;;;;;;23.60;16.70;;;1.20;99.90;;;;;;5085970;28;20471;-67
2021/12/22 11:25:24;;;;;;;23.87;17.13;;;1.20;99.90;;;;;;5086362;28;20456;-66
2021/12/22 11:27:54;;;;;;;22.57;16.33;;;1.30;99.90;;;;;;5079710;28;20449;-67
2021/12/22 11:30:22;;;;;;;21.97;16.57;;;1.30;99.90;;;;;;5081047;28;21025;-66
2021/12/22 11:32:50;;;;;;;21.60;16.20;;;1.30;99.90;;;;;;5078556;28;20466;-66
2021/12/22 11:35:17;;;;;;;23.90;17.60;;;1.40;99.90;;;;;;5076693;28;20569;-66
2021/12/22 11:37:44;;;;;;;25.50;19.30;;;1.40;99.90;;;;;;5075137;28;20468;-65
2021/12/22 11:40:14;;;;;;;21.53;17.70;;;1.40;99.90;;;;;;5086557;28;20447;-66
2021/12/22 11:42:42;;;;;;;23.70;18.10;;;1.40;99.90;;;;;;5065558;28;20479;-66
2021/12/22 11:45:13;;;;;;;23.57;17.40;;;1.40;99.90;;;;;;5065828;28;20470;-65
2021/12/22 11:47:43;;;;;;;22.50;17.50;;;1.50;99.90;;;;;;5065949;28;20450;-66
2021/12/22 11:50:16;;;;;;;22.60;16.80;;;1.50;99.90;;;;;;5072813;28;20454;-66
2021/12/22 11:52:52;;;;;;;22.73;16.43;;;1.50;99.90;;;;;;5079664;28;20459;-66
2021/12/22 11:55:21;;;;;;;21.17;17.03;;;1.50;99.90;;;;;;5085855;28;20435;-65
2021/12/22 11:57:50;;;;;;;21.83;16.90;;;1.60;99.90;;;;;;5084749;28;20450;-66
2021/12/22 12:00:27;;;;;;;22.40;18.30;;;1.60;99.90;;;;;;5086399;28;20465;-66
2021/12/22 12:02:57;;;;;;;23.73;18.37;;;1.60;99.90;;;;;;5077247;28;20546;-66
2021/12/22 12:05:25;;;;;;;23.53;17.53;;;1.50;99.90;;;;;;5087771;28;20435;-64
2021/12/22 12:07:54;;;;;;;21.67;17.23;;;1.60;99.90;;;;;;5072865;28;20451;-66
2021/12/22 12:10:39;;;;;;;21.47;16.70;;;1.60;99.90;;;;;;5083806;28;20463;-65
2021/12/22 12:13:14;;;;;;;24.20;17.50;;;1.70;99.90;;;;;;5082600;28;20498;-65
2021/12/22 12:21:52;;;;;;;23.47;17.40;;;1.80;99.90;;;;;;5083081;28;20487;-67
2021/12/22 12:24:40;;;;;;;21.20;17.27;;;1.80;99.90;;;;;;5081696;28;20480;-66
2021/12/22 12:27:34;;;;;;;21.90;16.00;;;1.80;99.90;;;;;;5076003;28;20440;-65
2021/12/22 12:30:02;;;;;;;23.07;17.50;;;1.90;99.90;;;;;;5076991;28;20456;-66
2021/12/22 12:33:00;;;;;;;22.80;17.47;;;1.90;99.90;;;;;;5077464;28;21388;-66
2021/12/22 12:35:28;;;;;;;24.63;18.57;;;1.90;99.90;;;;;;5075199;28;20483;-67
2021/12/22 12:38:01;;;;;;;25.57;16.50;;;1.90;99.90;;;;;;5076414;28;20827;-67
2021/12/22 12:41:02;;;;;;;21.07;17.17;;;1.90;99.90;;;;;;5084490;28;20534;-67
2021/12/22 12:44:03;;;;;;;20.80;16.03;;;2.00;99.90;;;;;;5080761;28;20470;-67
2021/12/22 12:46:37;;;;;;;20.90;15.67;;;2.00;99.90;;;;;;5083342;28;20482;-67
2021/12/22 12:49:39;;;;;;;21.70;16.33;;;2.00;99.90;;;;;;5084610;28;20477;-67
2021/12/22 12:52:22;;;;;;;20.37;15.93;;;2.00;99.90;;;;;;5086236;28;20542;-66
2021/12/22 12:54:50;;;;;;;22.63;18.70;;;1.90;99.90;;;;;;5085401;28;20476;-66
2021/12/22 12:57:24;;;;;;;21.50;16.03;;;2.00;99.90;;;;;;5084880;28;20478;-67